Time;durP1;ratioP1;P1;durP2;ratioP2;P2;SDS_P1;SDS_P2;PMS_P1;PMS_P2;Temp;Humidity;BMP_temperature;BMP_pressure;BME280_temperature;BME280_humidity;BME280_pressure;Samples;Min_cycle;Max_cycle;Signal;HPM_P1;HPM_P2
2023/12/07 00:01:10;;;;;;;118.27;63.90;;;;;;;2.33;68.16;100327.34;4954445;28;96760;-72
2023/12/07 00:03:36;;;;;;;121.80;68.83;;;;;;;2.07;68.46;100340.34;4951050;28;100855;-72
2023/12/07 00:06:02;;;;;;;122.93;66.83;;;;;;;2.08;69.33;100332.56;4952245;28;101613;-72
2023/12/07 00:08:27;;;;;;;122.67;65.40;;;;;;;1.98;69.37;100326.50;4964287;28;96756;-72
2023/12/07 00:10:53;;;;;;;130.80;69.17;;;;;;;1.89;69.67;100331.69;4956485;28;96902;-72
2023/12/07 00:13:18;;;;;;;128.20;65.57;;;;;;;1.88;69.25;100322.16;4972769;28;97507;-72
2023/12/07 00:15:44;;;;;;;120.93;66.00;;;;;;;2.04;68.99;100343.78;4966006;28;97480;-72
2023/12/07 00:18:09;;;;;;;121.37;64.80;;;;;;;1.98;69.26;100346.38;4955715;28;97568;-72
2023/12/07 00:20:35;;;;;;;121.33;65.73;;;;;;;2.14;68.46;100337.72;4956449;28;97350;-72
2023/12/07 00:23:00;;;;;;;124.00;62.13;;;;;;;2.00;68.33;100340.31;4956412;28;97637;-72
2023/12/07 00:25:26;;;;;;;124.47;64.47;;;;;;;1.78;68.57;100339.41;4954670;28;101062;-72
2023/12/07 00:27:52;;;;;;;116.53;63.50;;;;;;;1.98;68.39;100344.63;4966463;28;96683;-72
2023/12/07 00:30:17;;;;;;;121.30;63.40;;;;;;;2.11;68.51;100340.31;4977034;28;96946;-72
2023/12/07 00:32:43;;;;;;;123.00;62.40;;;;;;;2.12;67.66;100341.19;4971570;28;97383;-72
2023/12/07 00:35:09;;;;;;;119.77;63.43;;;;;;;1.84;68.32;100342.88;4972258;28;98062;-72
2023/12/07 00:37:35;;;;;;;116.10;62.77;;;;;;;1.72;68.36;100329.06;4972212;28;96788;-72
2023/12/07 00:40:01;;;;;;;124.30;63.73;;;;;;;1.88;68.24;100340.28;4973953;28;96916;-72
2023/12/07 00:42:27;;;;;;;119.50;62.80;;;;;;;2.00;68.39;100337.72;4971669;28;98463;-72
2023/12/07 00:44:53;;;;;;;113.87;62.40;;;;;;;2.24;67.65;100348.94;4972387;28;97322;-72
2023/12/07 00:47:19;;;;;;;114.37;61.70;;;;;;;2.06;67.62;100331.69;4971806;28;96820;-72
2023/12/07 00:49:44;;;;;;;113.30;59.37;;;;;;;1.91;68.17;100344.63;4939882;28;97607;-72
2023/12/07 00:52:10;;;;;;;113.13;60.03;;;;;;;2.01;68.56;100362.75;4972264;28;98032;-72
2023/12/07 00:54:35;;;;;;;123.63;64.57;;;;;;;2.22;67.98;100361.91;4955732;28;97351;-72
2023/12/07 00:57:01;;;;;;;114.63;59.20;;;;;;;2.19;67.76;100361.06;4954656;28;98396;-72
2023/12/07 00:59:26;;;;;;;113.37;60.60;;;;;;;2.14;68.15;100361.03;4973427;28;96670;-72
2023/12/07 01:01:52;;;;;;;113.43;58.30;;;;;;;2.16;67.66;100353.28;4965157;28;97525;-72
2023/12/07 01:04:17;;;;;;;106.60;57.60;;;;;;;2.34;67.40;100355.00;4969710;28;98317;-72
2023/12/07 01:06:43;;;;;;;109.60;60.90;;;;;;;2.23;67.21;100345.50;4961952;28;96693;-72
2023/12/07 01:09:13;;;;;;;111.80;60.30;;;;;;;2.34;67.41;100357.59;4998124;28;96991;-72
2023/12/07 01:11:42;;;;;;;107.93;57.70;;;;;;;2.35;67.16;100357.59;4965327;28;101367;-72
2023/12/07 01:14:07;;;;;;;108.23;57.13;;;;;;;2.46;66.83;100357.59;4951735;28;101242;-72
2023/12/07 01:16:33;;;;;;;106.67;57.33;;;;;;;2.52;67.02;100360.19;4971210;28;96789;-72
2023/12/07 01:18:58;;;;;;;116.47;59.67;;;;;;;2.51;66.75;100363.66;4966615;28;97106;-72
2023/12/07 01:21:24;;;;;;;107.93;58.77;;;;;;;2.40;66.81;100352.41;4957860;28;97693;-72
2023/12/07 01:23:49;;;;;;;113.70;57.70;;;;;;;2.45;66.63;100361.06;4949905;28;101210;-73
2023/12/07 01:26:15;;;;;;;111.03;59.17;;;;;;;2.40;66.73;100378.34;4970806;28;97226;-72
2023/12/07 01:28:40;;;;;;;115.53;62.40;;;;;;;2.26;67.11;100373.13;4970471;28;97236;-72
2023/12/07 01:31:06;;;;;;;108.83;58.50;;;;;;;2.14;67.59;100381.75;4971658;28;97507;-72
2023/12/07 01:33:31;;;;;;;104.40;54.87;;;;;;;2.25;67.01;100372.28;4953999;28;98943;-72
2023/12/07 01:35:57;;;;;;;103.93;53.63;;;;;;;2.45;67.07;100386.97;4947696;28;96725;-72
2023/12/07 01:38:22;;;;;;;104.73;54.70;;;;;;;2.47;67.18;100378.34;4956171;28;97205;-72
2023/12/07 01:40:48;;;;;;;112.50;59.90;;;;;;;2.40;67.27;100381.78;4963249;28;98012;-72
2023/12/07 01:43:14;;;;;;;103.17;55.10;;;;;;;2.44;66.72;100372.28;4953040;28;100947;-72
2023/12/07 01:45:39;;;;;;;103.73;55.07;;;;;;;2.51;66.91;100386.13;4955421;28;97191;-72
2023/12/07 01:48:06;;;;;;;100.30;54.10;;;;;;;2.39;67.28;100380.06;4954217;28;97294;-72
2023/12/07 01:50:33;;;;;;;101.77;54.20;;;;;;;2.39;66.84;100381.81;4957279;28;101688;-72
2023/12/07 01:53:01;;;;;;;100.20;55.10;;;;;;;2.50;66.23;100390.41;4971680;28;97610;-72
2023/12/07 01:55:27;;;;;;;109.73;56.17;;;;;;;2.56;66.43;100390.44;4955105;28;96856;-72
2023/12/07 01:57:53;;;;;;;104.47;54.67;;;;;;;2.51;66.66;100393.88;4954733;28;97865;-72
2023/12/07 02:00:19;;;;;;;100.33;55.30;;;;;;;2.63;66.15;100397.31;4942212;28;100838;-72
2023/12/07 02:02:45;;;;;;;105.20;54.27;;;;;;;2.57;66.40;100396.47;4937887;28;99363;-71
2023/12/07 02:05:12;;;;;;;108.20;55.53;;;;;;;2.53;66.42;100379.19;4955299;28;96814;-73
2023/12/07 02:07:38;;;;;;;98.07;53.33;;;;;;;2.72;66.20;100399.06;4953738;28;96844;-72
2023/12/07 02:10:03;;;;;;;103.00;56.00;;;;;;;2.56;66.15;100379.19;4955129;28;101639;-72
2023/12/07 02:12:29;;;;;;;104.73;53.43;;;;;;;2.74;65.72;100410.28;4954790;28;101418;-72
2023/12/07 02:14:55;;;;;;;103.23;55.33;;;;;;;2.69;66.16;100412.88;4972817;28;96942;-72
2023/12/07 02:17:58;;;;;;;106.23;56.60;;;;;;;2.74;66.14;100412.03;4971009;28;97642;-73
2023/12/07 02:20:48;;;;;;;106.67;55.40;;;;;;;2.73;65.79;100408.53;4976818;28;101176;-72
2023/12/07 02:23:15;;;;;;;98.80;53.27;;;;;;;2.72;65.58;100405.09;4960491;28;101785;-72
2023/12/07 02:26:02;;;;;;;99.53;50.60;;;;;;;2.75;65.50;100405.97;4970546;28;97041;-72
2023/12/07 02:28:28;;;;;;;103.03;53.43;;;;;;;2.81;65.17;100412.00;4954217;28;96939;-71
2023/12/07 02:30:53;;;;;;;99.80;53.90;;;;;;;2.66;65.40;100397.31;4953590;28;101689;-71
2023/12/07 02:33:19;;;;;;;95.33;50.23;;;;;;;2.72;65.08;100402.50;4944869;28;100436;-71
2023/12/07 02:35:44;;;;;;;93.80;50.27;;;;;;;2.71;65.49;100411.16;4954413;28;96787;-72
2023/12/07 02:38:10;;;;;;;101.53;51.13;;;;;;;2.71;64.98;100418.06;4970492;28;97441;-71
2023/12/07 02:40:35;;;;;;;96.97;50.40;;;;;;;2.60;64.96;100391.28;4937503;28;100781;-71
2023/12/07 02:43:02;;;;;;;95.60;52.33;;;;;;;2.72;65.00;100405.09;4955775;28;101242;-72
2023/12/07 02:45:28;;;;;;;101.23;52.80;;;;;;;2.78;65.14;100406.81;4956065;28;96794;-72
2023/12/07 02:47:54;;;;;;;98.07;53.70;;;;;;;2.80;65.30;100418.06;4954026;28;97190;-72
2023/12/07 02:50:20;;;;;;;107.53;55.73;;;;;;;2.75;65.08;100405.97;4952949;28;97948;-72
2023/12/07 02:52:45;;;;;;;102.77;54.93;;;;;;;2.81;65.32;100422.38;4962626;28;97526;-71
2023/12/07 02:55:11;;;;;;;104.53;55.30;;;;;;;2.83;65.06;100419.78;4979034;28;97303;-71
2023/12/07 02:57:37;;;;;;;96.50;52.80;;;;;;;2.87;65.42;100418.91;4960673;28;96889;-72
2023/12/07 03:00:07;;;;;;;99.37;53.30;;;;;;;2.89;65.21;100427.56;4970203;28;100988;-72
2023/12/07 03:02:37;;;;;;;96.67;52.70;;;;;;;2.88;65.34;100423.22;4953184;28;101123;-72
2023/12/07 03:05:03;;;;;;;91.37;50.50;;;;;;;2.82;65.28;100407.66;4959828;28;96745;-71
2023/12/07 03:07:29;;;;;;;94.23;51.60;;;;;;;2.83;65.41;100415.47;4939836;28;97213;-72
2023/12/07 03:09:54;;;;;;;102.80;53.60;;;;;;;2.83;65.49;100431.03;4953406;28;100980;-72
2023/12/07 03:12:20;;;;;;;98.10;55.30;;;;;;;2.87;65.42;100417.19;4969895;28;97936;-72
2023/12/07 03:14:45;;;;;;;100.63;54.07;;;;;;;2.90;65.46;100426.69;4969908;28;96866;-72
2023/12/07 03:17:11;;;;;;;100.93;52.53;;;;;;;2.81;65.58;100409.41;4954209;28;98090;-71
2023/12/07 03:19:40;;;;;;;93.03;51.20;;;;;;;2.87;65.35;100432.75;4969484;28;101512;-71
2023/12/07 03:22:06;;;;;;;98.97;53.97;;;;;;;2.79;65.26;100416.31;4970078;28;97431;-71
2023/12/07 03:24:34;;;;;;;93.43;52.27;;;;;;;2.88;65.12;100442.25;4953383;28;96766;-72
2023/12/07 03:26:59;;;;;;;93.63;51.67;;;;;;;2.90;65.28;100442.25;4980171;28;96841;-71
2023/12/07 03:29:25;;;;;;;95.17;54.63;;;;;;;2.89;65.44;100446.56;4970105;28;97724;-71
2023/12/07 03:31:50;;;;;;;100.53;55.40;;;;;;;2.90;65.04;100447.44;4953596;28;100863;-72
2023/12/07 03:34:15;;;;;;;106.10;55.70;;;;;;;2.84;65.38;100440.53;4969790;28;97052;-72
2023/12/07 03:36:48;;;;;;;99.27;53.87;;;;;;;2.89;65.17;100450.91;4963101;28;97516;-72
2023/12/07 03:39:14;;;;;;;101.03;53.80;;;;;;;2.88;65.12;100442.25;4957264;28;101516;-71
2023/12/07 03:41:40;;;;;;;106.53;54.60;;;;;;;2.95;64.86;100451.75;4962442;28;100667;-71
2023/12/07 03:44:06;;;;;;;100.73;55.67;;;;;;;2.91;64.71;100455.22;4961124;28;97839;-72
2023/12/07 03:46:31;;;;;;;96.63;52.83;;;;;;;2.88;65.14;100450.03;4983402;28;96891;-72
2023/12/07 03:48:57;;;;;;;100.50;51.33;;;;;;;2.90;65.33;100457.81;4958357;28;97385;-72
2023/12/07 03:51:22;;;;;;;103.37;54.17;;;;;;;2.94;65.18;100452.63;4939208;28;101848;-72
2023/12/07 03:53:48;;;;;;;107.47;57.80;;;;;;;2.94;65.04;100465.59;4979584;28;96850;-72
2023/12/07 03:56:28;;;;;;;113.00;57.90;;;;;;;2.90;65.41;100463.84;4965280;28;96790;-72
2023/12/07 03:58:54;;;;;;;107.53;56.50;;;;;;;2.91;65.36;100469.94;4975331;28;97971;-72
2023/12/07 04:01:26;;;;;;;111.50;57.40;;;;;;;2.91;65.53;100470.78;4953467;28;97481;-72
2023/12/07 04:03:54;;;;;;;106.83;55.60;;;;;;;2.99;65.47;100470.75;4973435;28;96854;-72
2023/12/07 04:06:20;;;;;;;109.93;57.23;;;;;;;2.93;65.34;100471.63;4962961;28;97492;-72
2023/12/07 04:08:46;;;;;;;103.97;57.00;;;;;;;2.88;65.13;100454.34;4977580;28;98178;-72
2023/12/07 04:11:12;;;;;;;109.57;56.73;;;;;;;3.04;65.19;100476.81;4953274;28;97358;-71
2023/12/07 04:13:38;;;;;;;109.77;58.30;;;;;;;3.02;65.38;100475.94;4956481;28;97434;-71
2023/12/07 04:16:03;;;;;;;106.80;56.03;;;;;;;3.01;65.30;100476.81;4973272;28;96936;-71
2023/12/07 04:18:29;;;;;;;106.53;55.37;;;;;;;3.00;65.48;100476.84;4941937;28;101034;-71
2023/12/07 04:20:54;;;;;;;101.73;53.17;;;;;;;3.07;65.19;100482.00;4972823;28;97810;-71
2023/12/07 04:23:20;;;;;;;96.10;52.77;;;;;;;3.04;65.19;100484.59;4956103;28;96848;-71
2023/12/07 04:25:45;;;;;;;95.97;52.80;;;;;;;2.96;65.06;100468.16;4973068;28;96915;-71
2023/12/07 04:28:11;;;;;;;109.60;56.30;;;;;;;2.95;65.02;100485.47;4974929;28;100997;-71
2023/12/07 04:30:37;;;;;;;101.43;54.73;;;;;;;2.92;65.30;100482.00;4957539;28;101035;-71
2023/12/07 04:33:02;;;;;;;110.10;56.23;;;;;;;2.94;65.70;100483.75;4961542;28;97333;-71
2023/12/07 04:35:28;;;;;;;107.83;54.77;;;;;;;2.88;65.32;100472.50;4956606;28;96969;-71
2023/12/07 04:37:54;;;;;;;102.60;54.33;;;;;;;3.00;65.36;100482.03;4972048;28;97921;-71
2023/12/07 04:40:20;;;;;;;105.47;55.97;;;;;;;2.87;65.26;100469.03;4961088;28;100949;-71
2023/12/07 04:42:45;;;;;;;107.33;57.17;;;;;;;2.95;65.38;100489.78;4968247;28;98381;-71
2023/12/07 04:45:11;;;;;;;103.17;55.00;;;;;;;2.92;65.54;100495.84;4955564;28;96919;-71
2023/12/07 04:47:36;;;;;;;104.37;56.77;;;;;;;2.80;65.52;100482.03;4954926;28;100650;-71
2023/12/07 04:50:02;;;;;;;110.70;58.13;;;;;;;2.86;65.80;100489.81;4973561;28;97479;-71
2023/12/07 04:52:27;;;;;;;105.97;56.13;;;;;;;2.78;65.26;100491.50;4971946;28;96711;-71
2023/12/07 04:54:53;;;;;;;107.23;55.97;;;;;;;2.76;66.04;100494.09;4953035;28;97283;-71
2023/12/07 04:57:18;;;;;;;105.57;58.27;;;;;;;2.83;65.43;100494.97;4970405;28;97484;-72
2023/12/07 04:59:46;;;;;;;100.27;53.20;;;;;;;2.92;65.59;100503.63;4973226;28;97249;-71
2023/12/07 05:02:16;;;;;;;105.43;50.83;;;;;;;2.93;65.57;100499.28;4975955;28;97127;-71
2023/12/07 05:04:45;;;;;;;99.70;55.37;;;;;;;2.97;65.46;100503.63;4955931;28;97185;-70
2023/12/07 05:07:14;;;;;;;97.00;54.17;;;;;;;2.98;65.47;100509.69;4953709;28;97500;-70
2023/12/07 05:09:40;;;;;;;114.43;56.67;;;;;;;2.83;65.60;100495.84;4951962;28;100875;-71
2023/12/07 05:12:06;;;;;;;103.23;57.23;;;;;;;2.93;65.32;100510.53;4951320;28;97941;-71
2023/12/07 05:14:32;;;;;;;103.90;58.57;;;;;;;2.95;65.66;100510.53;4955715;28;97428;-70
2023/12/07 05:16:58;;;;;;;113.90;57.83;;;;;;;2.98;65.71;100515.72;4949825;28;101276;-70
2023/12/07 05:19:24;;;;;;;112.17;58.63;;;;;;;2.98;65.69;100513.13;4974852;28;97993;-70
2023/12/07 05:21:49;;;;;;;108.50;55.87;;;;;;;3.02;65.56;100519.16;4946592;28;96771;-71
2023/12/07 05:24:15;;;;;;;105.90;58.17;;;;;;;2.98;65.53;100520.91;4964021;28;98166;-71
2023/12/07 05:26:41;;;;;;;100.43;57.23;;;;;;;2.93;65.86;100526.09;4963684;28;100954;-71
2023/12/07 05:29:07;;;;;;;104.27;56.93;;;;;;;2.91;65.69;100530.44;4962359;28;100862;-71
2023/12/07 05:31:32;;;;;;;113.20;55.73;;;;;;;2.95;65.88;100529.56;4979065;28;96844;-71
2023/12/07 05:33:58;;;;;;;111.13;57.63;;;;;;;2.98;65.61;100527.84;4948100;28;96925;-71
2023/12/07 05:36:23;;;;;;;101.53;55.37;;;;;;;2.99;65.83;100524.38;4978759;28;97519;-72
2023/12/07 05:38:49;;;;;;;109.60;56.57;;;;;;;2.98;65.87;100533.03;4980203;28;98453;-71
2023/12/07 05:41:15;;;;;;;102.03;54.87;;;;;;;2.95;65.54;100532.16;4979789;28;97297;-71
2023/12/07 05:43:41;;;;;;;103.33;55.20;;;;;;;3.07;65.65;100533.88;4948509;28;97511;-71
2023/12/07 05:46:07;;;;;;;111.13;55.77;;;;;;;3.05;65.63;100540.78;4964059;28;101209;-71
2023/12/07 05:48:33;;;;;;;108.37;56.73;;;;;;;3.02;65.85;100540.78;4963258;28;97304;-71
2023/12/07 05:50:58;;;;;;;108.37;54.73;;;;;;;3.00;65.99;100539.94;4979611;28;97226;-71
2023/12/07 05:53:24;;;;;;;116.13;59.17;;;;;;;3.05;66.32;100542.50;4963569;28;97406;-71
2023/12/07 05:55:50;;;;;;;123.60;64.10;;;;;;;3.04;66.17;100540.81;4980225;28;98172;-72
2023/12/07 05:58:17;;;;;;;153.63;70.07;;;;;;;3.04;66.54;100541.66;4954714;28;100098;-73
2023/12/07 06:00:44;;;;;;;141.63;69.47;;;;;;;3.07;66.50;100544.25;4957760;28;97383;-73
2023/12/07 06:03:09;;;;;;;137.43;68.00;;;;;;;3.06;66.66;100555.50;4971140;28;97436;-74
2023/12/07 06:05:38;;;;;;;147.40;71.40;;;;;;;3.09;66.69;100552.03;4950697;28;100849;-73
2023/12/07 06:08:04;;;;;;;141.70;65.50;;;;;;;3.07;66.80;100554.63;4934769;28;101279;-72
2023/12/07 06:10:30;;;;;;;157.67;69.40;;;;;;;3.06;67.38;100557.22;4974647;28;97848;-72
2023/12/07 06:12:56;;;;;;;144.53;66.27;;;;;;;3.07;67.47;100564.13;4973367;28;96832;-75
2023/12/07 06:15:22;;;;;;;162.67;74.67;;;;;;;3.02;67.49;100561.53;4967286;28;101740;-72
2023/12/07 06:17:48;;;;;;;147.90;70.60;;;;;;;3.08;67.38;100568.47;4954364;28;97354;-70
2023/12/07 06:20:13;;;;;;;157.10;70.63;;;;;;;3.09;67.71;100572.81;4937143;28;96757;-70
2023/12/07 06:22:39;;;;;;;160.93;74.30;;;;;;;3.08;67.71;100574.50;4955221;28;96935;-70
2023/12/07 06:25:05;;;;;;;163.40;76.07;;;;;;;3.01;67.63;100557.22;4970309;28;97978;-77
2023/12/07 06:27:30;;;;;;;155.03;74.43;;;;;;;3.13;67.51;100571.91;4954299;28;101852;-73
2023/12/07 06:29:56;;;;;;;160.63;70.97;;;;;;;3.14;67.79;100576.22;4953120;28;96747;-74
2023/12/07 06:32:22;;;;;;;143.57;70.77;;;;;;;3.10;68.50;100580.56;4955095;28;96823;-74
2023/12/07 06:34:47;;;;;;;156.03;73.63;;;;;;;3.10;67.94;100579.72;4937152;28;101646;-74
2023/12/07 06:37:12;;;;;;;151.67;71.60;;;;;;;3.14;67.80;100577.13;4971939;28;97901;-73
2023/12/07 06:39:38;;;;;;;144.53;69.93;;;;;;;3.12;68.12;100575.41;4944317;28;97085;-73
2023/12/07 06:42:04;;;;;;;154.07;72.30;;;;;;;3.18;68.26;100586.63;4952261;28;96959;-73
2023/12/07 06:44:30;;;;;;;149.87;71.03;;;;;;;3.23;67.71;100598.72;4950163;28;101215;-75
2023/12/07 06:46:55;;;;;;;139.60;70.63;;;;;;;3.07;68.22;100577.97;4970283;28;101030;-74
2023/12/07 06:49:21;;;;;;;137.73;67.37;;;;;;;3.13;68.10;100580.56;4953196;28;96813;-75
2023/12/07 06:51:46;;;;;;;156.37;71.67;;;;;;;3.20;68.48;100598.72;4970381;28;97208;-74
2023/12/07 06:54:13;;;;;;;139.90;69.47;;;;;;;3.17;69.16;100592.69;4952697;28;101310;-74
2023/12/07 06:56:39;;;;;;;149.83;70.83;;;;;;;3.21;68.45;100598.75;4957787;28;100712;-73
2023/12/07 06:59:04;;;;;;;148.07;74.07;;;;;;;3.30;68.58;100593.53;4967289;28;97061;-74
2023/12/07 07:01:30;;;;;;;147.17;69.97;;;;;;;3.27;68.61;100603.06;4982296;28;98498;-74
2023/12/07 07:03:56;;;;;;;137.77;66.07;;;;;;;3.29;68.65;100601.34;4982808;28;98597;-76
2023/12/07 07:06:22;;;;;;;136.90;69.10;;;;;;;3.20;68.99;100606.50;4957066;28;97316;-75
2023/12/07 07:08:49;;;;;;;134.10;67.93;;;;;;;3.25;68.88;100603.06;4953320;28;96926;-74
2023/12/07 07:11:14;;;;;;;129.50;65.10;;;;;;;3.31;69.01;100603.06;4974417;28;97228;-78
2023/12/07 07:13:40;;;;;;;130.80;63.23;;;;;;;3.17;68.86;100590.09;4963653;28;102797;-75
2023/12/07 07:16:07;;;;;;;131.20;64.57;;;;;;;3.30;68.98;100618.63;4970964;28;97579;-76
2023/12/07 07:18:33;;;;;;;131.63;67.73;;;;;;;3.30;68.98;100616.91;4979309;28;96861;-71
2023/12/07 07:20:58;;;;;;;133.63;64.90;;;;;;;3.29;68.54;100603.94;4975729;28;98125;-70
2023/12/07 07:23:24;;;;;;;127.33;62.93;;;;;;;3.33;69.10;100610.84;4984103;28;97908;-71
2023/12/07 07:25:50;;;;;;;128.10;62.97;;;;;;;3.27;69.63;100609.13;4982508;28;98176;-71
2023/12/07 07:28:15;;;;;;;121.00;62.00;;;;;;;3.27;69.30;100605.66;4967157;28;97520;-71
2023/12/07 07:30:40;;;;;;;122.47;63.23;;;;;;;3.34;69.22;100605.66;4986878;28;96941;-71
2023/12/07 07:33:06;;;;;;;119.23;60.47;;;;;;;3.35;69.31;100611.72;4965716;28;97439;-71
2023/12/07 07:35:31;;;;;;;123.17;63.37;;;;;;;3.33;69.51;100610.84;4956520;28;101512;-71
2023/12/07 07:37:57;;;;;;;124.47;62.80;;;;;;;3.31;69.91;100617.75;4964520;28;98173;-71
2023/12/07 07:40:24;;;;;;;122.33;62.17;;;;;;;3.30;69.91;100616.03;4979094;28;97338;-76
2023/12/07 07:42:50;;;;;;;115.07;58.73;;;;;;;3.41;69.59;100616.91;4979129;28;98697;-75
2023/12/07 07:45:16;;;;;;;124.77;63.80;;;;;;;3.39;70.09;100622.09;4978063;28;101158;-75
2023/12/07 07:47:42;;;;;;;113.63;57.90;;;;;;;3.43;70.42;100619.50;4983965;28;97190;-74
2023/12/07 07:50:07;;;;;;;120.37;59.03;;;;;;;3.48;70.14;100625.56;4983257;28;96728;-74
2023/12/07 07:52:33;;;;;;;115.53;59.37;;;;;;;3.54;69.96;100629.00;4980794;28;101575;-74
2023/12/07 07:55:01;;;;;;;122.53;62.17;;;;;;;3.51;70.55;100631.59;4966208;28;101570;-74
2023/12/07 07:57:26;;;;;;;112.17;60.10;;;;;;;3.51;70.03;100641.13;4968747;28;96786;-75
2023/12/07 07:59:52;;;;;;;118.57;61.27;;;;;;;3.56;70.88;100635.06;4967179;28;97053;-75
2023/12/07 08:02:17;;;;;;;117.07;59.17;;;;;;;3.56;70.20;100635.06;4965649;28;101937;-74
2023/12/07 08:04:43;;;;;;;123.63;60.70;;;;;;;3.65;70.32;100641.13;4967169;28;101268;-74
2023/12/07 08:07:11;;;;;;;120.77;58.40;;;;;;;3.69;70.10;100643.69;4982585;28;97151;-74
2023/12/07 08:09:36;;;;;;;125.10;63.00;;;;;;;3.63;70.27;100654.97;4969499;28;98235;-77
2023/12/07 08:12:02;;;;;;;123.87;61.13;;;;;;;3.59;70.12;100645.44;4994349;28;98058;-75
2023/12/07 08:14:27;;;;;;;118.00;60.57;;;;;;;3.68;70.13;100654.09;4974367;28;101154;-75
2023/12/07 08:16:53;;;;;;;119.93;59.93;;;;;;;3.72;70.39;100650.63;4981485;28;97130;-75
2023/12/07 08:19:19;;;;;;;123.07;60.03;;;;;;;3.70;70.27;100653.25;4963498;28;97570;-77
2023/12/07 08:21:44;;;;;;;123.73;62.77;;;;;;;3.75;70.07;100653.22;4959129;28;101543;-75
2023/12/07 08:24:11;;;;;;;121.53;61.13;;;;;;;3.68;70.49;100643.72;4961441;28;101058;-77
2023/12/07 08:26:36;;;;;;;128.63;62.40;;;;;;;3.68;70.26;100646.31;4984870;28;97702;-75
2023/12/07 08:29:02;;;;;;;120.77;61.00;;;;;;;3.78;69.61;100658.41;4971036;28;96867;-74
2023/12/07 08:31:28;;;;;;;131.10;61.93;;;;;;;3.79;69.89;100654.97;4973170;28;99974;-74
2023/12/07 08:33:53;;;;;;;125.03;60.80;;;;;;;3.70;69.91;100650.66;4953752;28;100542;-73
2023/12/07 08:36:19;;;;;;;130.00;61.60;;;;;;;3.70;70.30;100655.84;4962760;28;97404;-74
2023/12/07 08:38:45;;;;;;;120.17;62.50;;;;;;;3.68;70.40;100641.13;4941054;28;97085;-74
2023/12/07 08:41:10;;;;;;;123.23;59.73;;;;;;;3.79;69.97;100660.16;4978266;28;101407;-75
2023/12/07 08:43:36;;;;;;;121.07;59.50;;;;;;;3.81;70.13;100656.69;4964778;28;102716;-75
2023/12/07 08:46:01;;;;;;;114.27;56.63;;;;;;;3.90;70.20;100663.63;4983823;28;96825;-75
2023/12/07 08:48:27;;;;;;;130.27;59.83;;;;;;;3.86;70.10;100648.88;4980885;28;97462;-76
2023/12/07 08:50:52;;;;;;;123.87;59.63;;;;;;;3.75;70.54;100645.44;4973346;28;101486;-76
2023/12/07 08:53:18;;;;;;;127.00;58.93;;;;;;;3.80;70.33;100651.50;4980233;28;98110;-78
2023/12/07 08:55:44;;;;;;;123.47;60.47;;;;;;;3.75;70.51;100642.84;4961139;28;96794;-75
2023/12/07 08:58:10;;;;;;;124.53;58.73;;;;;;;3.89;69.93;100645.41;4969238;28;97023;-76
2023/12/07 09:00:36;;;;;;;126.73;58.33;;;;;;;3.92;70.10;100651.47;4956285;28;101199;-78
2023/12/07 09:03:02;;;;;;;123.97;56.37;;;;;;;3.92;69.90;100642.81;4959174;28;101182;-75
2023/12/07 09:05:27;;;;;;;128.70;59.27;;;;;;;3.84;70.15;100650.63;4969436;28;96764;-76
2023/12/07 09:07:53;;;;;;;121.73;59.67;;;;;;;3.84;70.06;100645.44;4981535;28;96895;-75
2023/12/07 09:10:19;;;;;;;123.30;56.57;;;;;;;3.92;69.93;100648.88;4964216;28;97577;-75
2023/12/07 09:12:45;;;;;;;125.23;58.40;;;;;;;3.98;69.98;100669.63;4952933;28;101576;-75
2023/12/07 09:15:10;;;;;;;124.17;55.67;;;;;;;4.03;69.55;100664.44;4970837;28;97344;-83
2023/12/07 09:17:37;;;;;;;139.83;67.20;;;;;;;3.99;69.76;100658.41;4948111;28;97321;-82
2023/12/07 09:20:14;;;;;;;129.43;59.60;;;;;;;3.96;69.72;100655.81;4941776;28;101344;-75
2023/12/07 09:22:44;;;;;;;125.73;57.00;;;;;;;3.90;69.77;100649.75;4953824;28;101695;-73
2023/12/07 09:25:10;;;;;;;115.23;53.57;;;;;;;4.04;69.53;100656.66;4970021;28;98230;-73
2023/12/07 09:27:39;;;;;;;121.63;54.90;;;;;;;4.07;69.36;100650.56;4945575;28;97197;-74
2023/12/07 09:30:12;;;;;;;118.03;57.83;;;;;;;4.04;69.72;100656.66;4949369;28;99711;-74
2023/12/07 09:32:38;;;;;;;120.30;56.83;;;;;;;4.05;69.73;100661.00;4965186;28;101882;-75
2023/12/07 09:35:05;;;;;;;116.87;57.20;;;;;;;4.09;69.72;100664.44;4970345;28;97039;-75
2023/12/07 09:37:30;;;;;;;122.33;56.73;;;;;;;4.07;69.81;100661.84;4975924;28;97827;-76
2023/12/07 09:39:56;;;;;;;120.33;57.30;;;;;;;4.06;69.75;100661.84;4950839;28;101816;-76
2023/12/07 09:42:21;;;;;;;116.13;56.43;;;;;;;4.13;69.94;100662.69;4973332;28;100962;-78
2023/12/07 09:44:47;;;;;;;126.03;59.13;;;;;;;4.16;69.50;100655.78;4969538;28;97240;-75
2023/12/07 09:47:13;;;;;;;131.67;60.40;;;;;;;4.03;69.59;100641.06;4949066;28;96959;-74
2023/12/07 09:49:40;;;;;;;125.97;57.50;;;;;;;4.14;69.75;100644.50;4942095;28;101924;-75
2023/12/07 09:52:07;;;;;;;121.03;59.63;;;;;;;4.04;69.33;100640.19;4982037;28;101436;-75
2023/12/07 09:54:35;;;;;;;120.70;56.30;;;;;;;4.20;69.51;100657.47;4966609;28;96839;-76
2023/12/07 09:57:01;;;;;;;117.30;57.00;;;;;;;4.18;69.31;100659.22;4957366;28;97427;-76
2023/12/07 09:59:26;;;;;;;127.77;57.90;;;;;;;4.21;69.16;100658.34;4954835;28;101101;-75
2023/12/07 10:01:52;;;;;;;121.30;56.00;;;;;;;4.26;69.52;100654.88;4986229;28;97939;-74
2023/12/07 10:04:23;;;;;;;126.93;59.07;;;;;;;4.19;69.06;100658.38;4975891;28;97156;-74
2023/12/07 10:06:50;;;;;;;130.52;60.22;;;;;;;4.07;69.42;100642.78;4968958;28;96904;-74
2023/12/07 10:09:16;;;;;;;129.50;61.63;;;;;;;4.15;69.39;100634.97;4957021;28;97738;-74
2023/12/07 10:11:44;;;;;;;134.67;62.63;;;;;;;4.16;69.22;100644.50;4970322;28;101268;-74
2023/12/07 10:14:10;;;;;;;132.57;63.97;;;;;;;4.26;69.06;100639.28;4965627;28;97226;-78
2023/12/07 10:16:36;;;;;;;128.00;62.27;;;;;;;4.34;69.22;100654.84;4970934;28;97560;-79
2023/12/07 10:19:21;;;;;;;131.53;62.57;;;;;;;4.29;69.16;100647.06;4951384;28;101534;-77
2023/12/07 10:21:53;;;;;;;135.77;62.93;;;;;;;4.33;69.31;100658.31;4956768;28;98595;-77
2023/12/07 10:24:20;;;;;;;125.30;59.60;;;;;;;4.27;68.87;100659.19;4952258;28;98157;-77
2023/12/07 10:26:47;;;;;;;121.67;57.00;;;;;;;4.27;68.64;100661.78;4967527;28;97055;-78
2023/12/07 10:29:13;;;;;;;122.83;55.70;;;;;;;4.27;68.76;100656.59;4954472;28;98351;-78
2023/12/07 10:31:38;;;;;;;127.17;57.57;;;;;;;4.27;69.25;100658.31;4967290;28;97725;-79
2023/12/07 10:34:04;;;;;;;131.60;59.13;;;;;;;4.20;69.25;100651.44;4987561;28;97330;-79
2023/12/07 10:36:30;;;;;;;125.00;56.93;;;;;;;4.35;69.14;100650.50;4968102;28;97158;-78
2023/12/07 10:38:56;;;;;;;138.77;59.60;;;;;;;4.40;69.08;100660.03;4953248;28;97389;-77
2023/12/07 10:41:23;;;;;;;128.23;57.60;;;;;;;4.38;68.93;100658.31;4971230;28;97483;-78
2023/12/07 10:43:52;;;;;;;138.03;61.47;;;;;;;4.26;68.90;100647.06;4971326;28;97121;-77
2023/12/07 10:46:20;;;;;;;133.53;59.70;;;;;;;4.29;68.79;100652.25;4959723;28;99947;-77
2023/12/07 10:48:51;;;;;;;138.90;63.27;;;;;;;4.16;68.85;100635.00;4965653;28;97486;-78
2023/12/07 10:51:29;;;;;;;149.18;65.47;;;;;;;4.32;68.56;100652.25;4947967;28;99862;-80
2023/12/07 10:53:58;;;;;;;148.43;61.80;;;;;;;4.24;68.80;100655.72;4967115;28;97390;-77
2023/12/07 10:56:41;;;;;;;140.57;62.53;;;;;;;4.28;69.14;100660.94;4954385;28;98236;-77
2023/12/07 10:59:10;;;;;;;145.30;65.77;;;;;;;4.22;69.22;100652.31;4967157;28;98578;-80
2023/12/07 11:01:39;;;;;;;138.30;61.03;;;;;;;4.28;69.30;100645.34;4951067;28;101090;-78
2023/12/07 11:04:06;;;;;;;137.80;60.90;;;;;;;4.17;68.92;100628.06;4968535;28;97363;-79